KZR991 UAAA-UACC
Flight info
| Callsign | KZR991 |
|---|---|
| Flight time | N/A |
| Altitude | 36000 |
| Route | ETEDA1B ETEDA W333 BANOS BANOS1G |
| Aircraft | B763/H-SDE2E3FGHIZM1RWXY/LB1 |
Departure
| Time | 2026-04-23 13:57 |
|---|---|
| Airport | Almaty International Airport (UAAA) |
Arrival
| Time | N/A |
|---|---|
| Airport | Nursultan Nazarbayev International Airport (UACC) |
| Time | Latitude | Longitude | Altitude | Speed | Heading |
|---|---|---|---|---|---|
| 2026-04-23 13:31 | 43.34635 | 77.01338 | 2228 ft | 0 kts | 275° |
| 2026-04-23 13:45 | 43.34634 | 77.01351 | 2228 ft | 2 kts | 275° |
| 2026-04-23 13:45 | 43.34633 | 77.01372 | 2228 ft | 2 kts | 276° |
| 2026-04-23 13:45 | 43.34631 | 77.01392 | 2228 ft | 2 kts | 276° |
| 2026-04-23 13:46 | 43.34630 | 77.01413 | 2228 ft | 2 kts | 276° |
| 2026-04-23 13:46 | 43.34631 | 77.01433 | 2228 ft | 2 kts | 241° |
| 2026-04-23 13:46 | 43.34640 | 77.01448 | 2228 ft | 2 kts | 209° |
| 2026-04-23 13:46 | 43.34654 | 77.01454 | 2227 ft | 2 kts | 177° |
| 2026-04-23 13:47 | 43.34668 | 77.01449 | 2227 ft | 2 kts | 152° |
| 2026-04-23 13:47 | 43.34674 | 77.01445 | 2227 ft | 1 kts | 158° |
| 2026-04-23 13:47 | 43.34677 | 77.01444 | 2227 ft | 0 kts | 156° |
| 2026-04-23 13:49 | 43.34676 | 77.01444 | 2226 ft | 0 kts | 156° |
| 2026-04-23 13:49 | 43.34654 | 77.01457 | 2227 ft | 7 kts | 160° |
| 2026-04-23 13:49 | 43.34576 | 77.01479 | 2230 ft | 15 kts | 169° |
| 2026-04-23 13:50 | 43.34475 | 77.01533 | 2233 ft | 15 kts | 154° |
| 2026-04-23 13:50 | 43.34347 | 77.01614 | 2234 ft | 24 kts | 156° |
| 2026-04-23 13:50 | 43.34214 | 77.01698 | 2236 ft | 19 kts | 156° |
| 2026-04-23 13:50 | 43.34163 | 77.01808 | 2237 ft | 13 kts | 79° |
| 2026-04-23 13:51 | 43.34208 | 77.01917 | 2237 ft | 13 kts | 55° |
| 2026-04-23 13:51 | 43.34273 | 77.02048 | 2236 ft | 21 kts | 56° |
| 2026-04-23 13:51 | 43.34367 | 77.02237 | 2235 ft | 18 kts | 55° |
| 2026-04-23 13:51 | 43.34385 | 77.02273 | 2235 ft | 4 kts | 56° |
| 2026-04-23 13:52 | 43.34417 | 77.02337 | 2234 ft | 0 kts | 56° |
| 2026-04-23 13:52 | 43.34417 | 77.02338 | 2234 ft | 1 kts | 56° |
| 2026-04-23 13:52 | 43.34473 | 77.02452 | 2233 ft | 15 kts | 56° |
| 2026-04-23 13:53 | 43.34477 | 77.02460 | 2233 ft | 0 kts | 56° |
| 2026-04-23 13:53 | 43.34494 | 77.02494 | 2233 ft | 11 kts | 56° |
| 2026-04-23 13:53 | 43.34551 | 77.02608 | 2232 ft | 2 kts | 55° |
| 2026-04-23 13:56 | 43.34590 | 77.02686 | 2231 ft | 25 kts | 56° |
| 2026-04-23 13:56 | 43.34778 | 77.03062 | 2229 ft | 77 kts | 57° |
| 2026-04-23 13:57 | 43.35181 | 77.03879 | 2235 ft | 132 kts | 56° |
| 2026-04-23 13:57 | 43.35787 | 77.05095 | 2270 ft | 176 kts | 58° |
| 2026-04-23 13:57 | 43.36529 | 77.06554 | 2634 ft | 193 kts | 54° |
| 2026-04-23 13:57 | 43.37339 | 77.08006 | 3380 ft | 193 kts | 52° |
| 2026-04-23 13:58 | 43.38108 | 77.09444 | 3603 ft | 191 kts | 53° |